Main page
METAR-TAF:

METAR-TAF

Airports :

Aktion National Airport

Preveza, Greece

latitude: 38-37N, longitude: 020-46E, elevation: 4 m

Current weather observation

The report was made 22 minutes ago, at 01:50 UTC
Wind 4 kt from the East
Temperature 8°C
Humidity 57%
Pressure 1022 hPa
Visibility 10 km or more
Few clouds at a height of 2000 ft
Scattered clouds at a height of 7000 ft

METAR: LGPZ 070150Z 09004KT 9999 FEW020 SCT070 08/00 Q1022 RMK BKN180 BLU

Time: 05:12 (02:12 UTC)

Forecast

The report was made 3 hours and 12 minutes ago, at 23:00 UTC
Forecast valid from 07 at 00 UTC to 07 at 24 UTC
Wind 15 kt from the Northeast
Visibility 10 km or more
Scattered clouds at a height of 2000 ft
Broken clouds at a height of 7000 ft
Temporary
from 07 at 03 UTC to 07 at 06 UTC
Wind 15 kt from the Northeast with gusts up to 25 kt

TAF: LGPZ 062300Z 0700/0724 05015KT 9999 SCT020 BKN070 TEMPO 0703/0706 05015G25KT

Weather observations and forecasts of more than 4000 airports (METAR and TAF reports).

The available stations are represented by yellow and red dots on the map.

Hover mouse over dot to see the name of the station.

Then click to see weather observations and forecasts.

To change the map : click on the green buttons with a black cross to zoom in, on the green button with a dash to zoom out, or on the green arrows for adjacent maps.


METAR-TAF: